createdAt,value
2024-02-26T00:02:20.795Z,58.66
2024-02-26T00:04:48.569Z,58.59
2024-02-26T00:07:15.558Z,58.50
2024-02-26T00:09:42.564Z,58.25
2024-02-26T00:12:09.695Z,58.16
2024-02-26T00:14:36.907Z,58.13
2024-02-26T00:17:03.975Z,58.13
2024-02-26T00:19:31.169Z,58.04
2024-02-26T00:21:58.300Z,58.38
2024-02-26T00:24:26.814Z,57.83
2024-02-26T00:26:56.068Z,58.12
2024-02-26T00:29:23.542Z,57.90
2024-02-26T00:31:50.564Z,57.98
2024-02-26T00:34:17.737Z,58.13
2024-02-26T00:36:45.040Z,58.38
2024-02-26T00:39:13.188Z,58.01
2024-02-26T00:41:42.242Z,57.68
2024-02-26T00:44:09.535Z,58.12
2024-02-26T00:46:37.003Z,57.95
2024-02-26T00:49:04.543Z,57.99
2024-02-26T00:51:32.436Z,57.67
2024-02-26T00:53:59.626Z,58.23
2024-02-26T00:56:26.902Z,57.77
2024-02-26T00:58:53.981Z,57.95
2024-02-26T01:01:21.300Z,57.73
2024-02-26T01:03:48.634Z,57.99
2024-02-26T01:06:15.762Z,57.66
2024-02-26T01:08:43.241Z,57.43
2024-02-26T01:11:29.569Z,56.89
2024-02-26T01:13:58.102Z,57.81
2024-02-26T01:16:25.494Z,57.84
2024-02-26T01:18:52.719Z,57.73
2024-02-26T01:21:19.971Z,57.96
2024-02-26T01:23:47.051Z,57.75
2024-02-26T01:26:14.612Z,57.70
2024-02-26T01:28:41.654Z,57.37
2024-02-26T01:31:10.772Z,57.46
2024-02-26T01:33:38.194Z,57.55
2024-02-26T01:36:05.816Z,57.62
2024-02-26T01:38:33.089Z,57.37
2024-02-26T01:41:00.177Z,57.44
2024-02-26T01:43:27.324Z,57.49
2024-02-26T01:45:54.983Z,57.33
2024-02-26T01:48:22.543Z,57.44
2024-02-26T01:50:49.795Z,57.67
2024-02-26T01:53:18.676Z,57.57
2024-02-26T01:55:46.296Z,57.69
2024-02-26T01:58:14.445Z,57.66
2024-02-26T02:00:41.820Z,57.62
2024-02-26T02:03:09.163Z,57.29
2024-02-26T02:05:43.237Z,56.96
2024-02-26T02:08:12.574Z,56.97
2024-02-26T02:10:40.726Z,57.29
2024-02-26T02:13:08.542Z,57.22
2024-02-26T02:15:36.398Z,57.01
2024-02-26T02:18:04.201Z,57.42
2024-02-26T02:20:35.334Z,56.98
2024-02-26T02:23:04.407Z,57.18
2024-02-26T02:25:31.453Z,57.00
2024-02-26T02:27:59.062Z,57.23
2024-02-26T02:30:29.388Z,57.21
2024-02-26T02:32:57.003Z,57.13
2024-02-26T02:35:24.488Z,56.93
2024-02-26T02:37:53.827Z,57.06
2024-02-26T02:40:20.943Z,57.08
2024-02-26T02:42:48.320Z,56.80
2024-02-26T02:45:15.457Z,57.13
2024-02-26T02:47:42.744Z,57.35
2024-02-26T02:50:10.333Z,57.29
2024-02-26T02:52:37.447Z,57.13
2024-02-26T02:55:05.101Z,57.04
2024-02-26T02:57:33.449Z,57.27
2024-02-26T03:00:01.096Z,57.15
2024-02-26T03:02:28.170Z,57.39
2024-02-26T03:04:55.278Z,57.16
2024-02-26T03:07:22.399Z,56.91
2024-02-26T03:09:49.543Z,57.16
2024-02-26T03:12:16.704Z,57.06
2024-02-26T03:14:44.028Z,57.09
2024-02-26T03:17:11.014Z,56.93
2024-02-26T03:19:38.170Z,57.13
2024-02-26T03:22:05.486Z,56.99
2024-02-26T03:24:32.648Z,56.96
2024-02-26T03:26:59.685Z,56.63
2024-02-26T03:29:26.923Z,57.03
2024-02-26T03:31:53.895Z,57.02
2024-02-26T03:36:48.121Z,57.24
2024-02-26T03:39:15.179Z,57.02
2024-02-26T03:41:42.634Z,57.02
2024-02-26T03:44:09.679Z,56.92
2024-02-26T03:46:36.948Z,56.90
2024-02-26T03:49:04.419Z,57.11
2024-02-26T03:51:32.849Z,56.79
2024-02-26T03:54:00.159Z,57.26
2024-02-26T03:56:28.808Z,57.22
2024-02-26T03:58:55.856Z,57.05
2024-02-26T04:01:23.006Z,57.07
2024-02-26T04:03:50.035Z,57.07
2024-02-26T04:06:19.398Z,56.92
2024-02-26T04:08:46.778Z,57.18
2024-02-26T04:11:14.533Z,57.00
2024-02-26T04:13:41.589Z,57.28
2024-02-26T04:16:08.639Z,57.01
2024-02-26T04:18:35.762Z,57.09
2024-02-26T04:21:04.163Z,57.12
2024-02-26T04:23:32.237Z,57.04
2024-02-26T04:25:59.662Z,57.45
2024-02-26T04:28:27.618Z,56.80
2024-02-26T04:30:54.740Z,57.32
2024-02-26T04:33:22.099Z,57.04
2024-02-26T04:35:49.457Z,56.96
2024-02-26T04:38:16.563Z,57.40
2024-02-26T04:40:43.616Z,57.44
2024-02-26T04:43:10.764Z,57.28
2024-02-26T04:45:37.842Z,57.52
2024-02-26T04:48:05.370Z,57.41
2024-02-26T04:50:32.478Z,57.45
2024-02-26T04:52:59.507Z,57.58
2024-02-26T04:55:26.679Z,57.70
2024-02-26T04:57:53.793Z,57.51
2024-02-26T05:00:21.154Z,57.44
2024-02-26T05:02:48.450Z,57.58
2024-02-26T05:05:15.623Z,57.44
2024-02-26T05:07:46.528Z,57.39
2024-02-26T05:10:13.859Z,57.71
2024-02-26T05:12:43.827Z,57.74
2024-02-26T05:15:12.033Z,57.45
2024-02-26T05:17:39.229Z,57.58
2024-02-26T05:20:09.224Z,57.53
2024-02-26T05:22:36.413Z,57.37
2024-02-26T05:25:04.405Z,57.64
2024-02-26T05:27:31.861Z,57.62
2024-02-26T05:29:59.052Z,57.82
2024-02-26T05:32:26.179Z,57.84
2024-02-26T05:34:53.365Z,57.50
2024-02-26T05:37:20.422Z,57.46
2024-02-26T05:39:47.588Z,57.50
2024-02-26T05:42:14.671Z,57.80
2024-02-26T05:44:41.814Z,57.44
2024-02-26T05:47:08.931Z,57.69
2024-02-26T05:49:36.124Z,57.91
2024-02-26T05:52:03.434Z,57.81
2024-02-26T05:54:30.614Z,57.76
2024-02-26T05:56:57.660Z,57.59
2024-02-26T05:59:25.147Z,57.84
2024-02-26T06:01:52.184Z,57.91
2024-02-26T06:04:19.584Z,57.73
2024-02-26T06:06:47.092Z,57.63
2024-02-26T06:09:14.341Z,57.60
2024-02-26T06:11:41.554Z,57.85
2024-02-26T06:14:08.815Z,57.61
2024-02-26T06:16:36.114Z,57.85
2024-02-26T06:19:03.538Z,57.69
2024-02-26T06:21:31.046Z,57.95
2024-02-26T06:23:58.154Z,57.72
2024-02-26T06:26:25.231Z,57.49
2024-02-26T06:28:53.698Z,57.42
2024-02-26T06:31:21.784Z,57.86
2024-02-26T06:33:49.488Z,57.99
2024-02-26T06:36:19.472Z,57.79
2024-02-26T06:38:46.637Z,57.75
2024-02-26T06:41:13.756Z,57.63
2024-02-26T06:43:40.739Z,57.66
2024-02-26T06:46:08.555Z,57.83
2024-02-26T06:48:38.169Z,57.82
2024-02-26T06:51:05.493Z,57.78
2024-02-26T06:53:32.524Z,57.80
2024-02-26T06:55:59.771Z,57.74
2024-02-26T06:58:27.042Z,57.87
2024-02-26T07:00:54.190Z,57.67
2024-02-26T07:03:21.574Z,57.44
2024-02-26T07:05:49.037Z,57.57
2024-02-26T07:08:16.486Z,57.41
2024-02-26T07:10:44.805Z,57.75
2024-02-26T07:13:11.858Z,57.37
2024-02-26T07:15:38.921Z,57.00
2024-02-26T07:18:06.421Z,57.36
2024-02-26T07:20:33.573Z,56.88
2024-02-26T07:23:00.827Z,56.78
2024-02-26T07:25:27.913Z,56.92
2024-02-26T07:27:54.909Z,57.12
2024-02-26T07:30:22.125Z,57.03
2024-02-26T07:32:51.391Z,57.12
2024-02-26T07:35:18.977Z,56.75
2024-02-26T07:37:49.739Z,56.74
2024-02-26T07:40:17.022Z,56.74
2024-02-26T07:42:44.837Z,57.21
2024-02-26T07:45:12.254Z,56.70
2024-02-26T07:47:42.257Z,56.73
2024-02-26T07:50:10.323Z,56.61
2024-02-26T07:52:37.522Z,56.52
2024-02-26T07:55:07.767Z,56.91
2024-02-26T07:57:35.634Z,56.62
2024-02-26T08:00:04.752Z,56.64
2024-02-26T08:02:33.070Z,56.71
2024-02-26T08:05:00.362Z,56.64
2024-02-26T08:07:27.703Z,56.65
2024-02-26T08:09:54.894Z,56.31
2024-02-26T08:12:22.138Z,56.65
2024-02-26T08:14:49.326Z,56.66
2024-02-26T08:18:06.773Z,55.38
2024-02-26T08:20:42.949Z,56.51
2024-02-26T08:27:59.605Z,56.40
2024-02-26T08:30:27.236Z,56.27
2024-02-26T08:33:19.635Z,55.20
2024-02-26T08:41:23.748Z,55.07
2024-02-26T09:04:43.317Z,56.00
2024-02-26T09:07:12.325Z,55.87
2024-02-26T09:18:36.234Z,55.80
2024-02-26T09:21:07.673Z,55.30
2024-02-26T09:23:36.322Z,55.64
2024-02-26T09:26:04.053Z,55.57
2024-02-26T09:28:36.066Z,55.25
2024-02-26T09:31:03.259Z,55.21
2024-02-26T09:33:30.592Z,55.20
2024-02-26T09:35:58.050Z,55.28
2024-02-26T09:38:25.290Z,55.24
2024-02-26T09:40:53.893Z,55.41
2024-02-26T09:43:24.765Z,54.99
2024-02-26T09:45:54.524Z,55.45
2024-02-26T09:48:23.862Z,55.27
2024-02-26T09:50:51.066Z,55.23
2024-02-26T09:53:19.469Z,55.10
2024-02-26T09:55:46.543Z,54.90
2024-02-26T09:58:19.808Z,54.82
2024-02-26T10:00:54.768Z,54.07
2024-02-26T10:03:23.387Z,54.22
2024-02-26T10:05:52.345Z,54.30
2024-02-26T10:08:23.439Z,53.93
2024-02-26T10:10:51.729Z,54.47
2024-02-26T10:13:18.797Z,54.28
2024-02-26T10:15:45.800Z,54.30
2024-02-26T10:18:13.116Z,54.25
2024-02-26T10:20:40.731Z,54.18
2024-02-26T10:23:08.299Z,54.05
2024-02-26T10:25:36.023Z,53.88
2024-02-26T10:28:06.297Z,53.99
2024-02-26T10:30:37.985Z,53.92
2024-02-26T10:33:05.467Z,54.10
2024-02-26T10:35:33.270Z,53.79
2024-02-26T10:38:00.881Z,53.69
2024-02-26T10:40:28.046Z,53.49
2024-02-26T10:42:55.126Z,53.55
2024-02-26T10:45:24.982Z,53.66
2024-02-26T10:47:52.455Z,53.64
2024-02-26T10:51:10.117Z,51.92
2024-02-26T11:05:14.727Z,53.52
2024-02-26T11:07:44.861Z,53.84
2024-02-26T11:13:58.497Z,53.73
2024-02-26T11:21:12.935Z,53.00
2024-02-26T11:24:30.397Z,52.61
2024-02-26T11:27:06.051Z,52.97
2024-02-26T11:30:02.321Z,53.01
2024-02-26T11:32:33.655Z,53.01
2024-02-26T11:35:01.392Z,53.15
2024-02-26T11:37:29.313Z,53.23
2024-02-26T11:40:00.012Z,53.33
2024-02-26T11:42:30.143Z,53.35
2024-02-26T11:45:04.012Z,53.36
2024-02-26T11:47:39.056Z,53.46
2024-02-26T11:50:37.798Z,51.34
2024-02-26T11:53:27.180Z,51.57
2024-02-26T11:56:28.395Z,51.42
2024-02-26T11:59:03.345Z,51.87
2024-02-26T12:01:50.085Z,51.27
2024-02-26T12:04:36.901Z,51.82
2024-02-26T12:07:05.280Z,52.23
2024-02-26T12:10:24.171Z,50.61
2024-02-26T12:12:54.094Z,52.34
2024-02-26T12:15:24.266Z,51.84
2024-02-26T12:17:52.471Z,52.31
2024-02-26T12:20:40.689Z,52.26
2024-02-26T12:23:08.392Z,52.30
2024-02-26T12:30:57.314Z,52.54
2024-02-26T12:41:51.221Z,52.91
2024-02-26T12:48:58.043Z,53.10
2024-02-26T12:58:49.346Z,53.48
2024-02-26T13:05:21.372Z,53.32
2024-02-26T13:11:50.434Z,52.23
2024-02-26T13:29:08.214Z,52.68
2024-02-26T13:36:26.487Z,53.29
2024-02-26T13:38:55.983Z,53.07
2024-02-26T13:41:27.089Z,52.94
2024-02-26T13:44:06.655Z,52.86
2024-02-26T13:46:33.882Z,52.92
2024-02-26T13:49:01.456Z,53.08
2024-02-26T13:51:30.580Z,52.76
2024-02-26T13:54:00.716Z,52.56
2024-02-26T13:56:35.609Z,52.41
2024-02-26T13:59:02.738Z,52.33
2024-02-26T14:01:33.226Z,52.38
2024-02-26T14:04:03.243Z,52.44
2024-02-26T14:06:32.379Z,52.13
2024-02-26T14:09:01.994Z,52.14
2024-02-26T14:11:35.248Z,51.83
2024-02-26T14:14:02.592Z,52.63
2024-02-26T14:16:32.461Z,52.23
2024-02-26T14:19:00.569Z,51.78
2024-02-26T14:25:52.893Z,51.34
2024-02-26T14:28:25.634Z,51.10
2024-02-26T14:30:56.885Z,50.90
2024-02-26T14:33:24.345Z,51.01
2024-02-26T14:35:52.294Z,50.71
2024-02-26T14:38:19.563Z,50.71
2024-02-26T14:40:47.268Z,50.58
2024-02-26T14:43:14.599Z,50.37
2024-02-26T14:45:41.987Z,50.43
2024-02-26T14:48:09.854Z,50.61
2024-02-26T14:58:35.527Z,51.16
2024-02-26T15:01:02.643Z,51.02
2024-02-26T15:03:29.875Z,50.85
2024-02-26T15:05:57.145Z,50.71
2024-02-26T15:08:24.988Z,50.65
2024-02-26T15:10:52.376Z,50.90
2024-02-26T15:13:19.966Z,50.89
2024-02-26T15:15:48.014Z,50.74
2024-02-26T15:22:11.754Z,50.61
2024-02-26T15:28:11.370Z,50.04
2024-02-26T15:49:46.079Z,50.50
2024-02-26T15:56:08.988Z,51.66
2024-02-26T16:03:29.240Z,52.19
2024-02-26T16:05:56.862Z,51.93
2024-02-26T16:08:25.205Z,52.06
2024-02-26T16:10:53.424Z,52.07
2024-02-26T16:13:21.428Z,52.44
2024-02-26T16:16:03.820Z,52.11
2024-02-26T16:18:32.202Z,52.48
2024-02-26T16:21:00.157Z,52.30
2024-02-26T16:23:34.636Z,52.30
2024-02-26T16:26:01.857Z,52.63
2024-02-26T16:28:29.109Z,52.64
2024-02-26T16:31:00.492Z,52.48
2024-02-26T16:33:32.617Z,52.57
2024-02-26T16:36:27.200Z,52.73
2024-02-26T16:39:03.084Z,52.78
2024-02-26T16:41:30.922Z,52.81
2024-02-26T16:54:40.998Z,52.47
2024-02-26T16:57:14.805Z,52.78
2024-02-26T17:10:58.471Z,53.17
2024-02-26T17:11:26.777Z,53.14
2024-02-26T17:14:08.071Z,52.99
2024-02-26T17:16:39.160Z,53.18
2024-02-26T17:19:10.428Z,53.33
2024-02-26T17:21:50.453Z,53.29
2024-02-26T17:24:21.091Z,53.28
2024-02-26T17:27:09.475Z,53.05
2024-02-26T17:29:42.129Z,53.48
2024-02-26T17:32:13.109Z,53.50
2024-02-26T17:34:53.135Z,53.33
2024-02-26T17:37:26.308Z,53.44
2024-02-26T17:39:55.361Z,53.41
2024-02-26T17:42:26.487Z,53.57
2024-02-26T17:45:10.244Z,53.14
2024-02-26T17:47:55.867Z,53.08
2024-02-26T17:50:40.873Z,53.59
2024-02-26T17:53:08.180Z,53.36
2024-02-26T17:56:07.544Z,52.98
2024-02-26T17:58:35.477Z,53.37
2024-02-26T18:01:02.607Z,53.52
2024-02-26T18:03:29.780Z,53.55
2024-02-26T18:05:57.080Z,53.55
2024-02-26T18:08:24.301Z,53.72
2024-02-26T18:10:51.679Z,53.53
2024-02-26T18:13:27.862Z,53.56
2024-02-26T18:15:58.617Z,53.60
2024-02-26T18:18:32.782Z,53.68
2024-02-26T18:21:02.903Z,53.55
2024-02-26T18:23:48.403Z,53.69
2024-02-26T18:26:20.499Z,53.46
2024-02-26T18:28:48.476Z,53.54
2024-02-26T18:35:09.274Z,53.87
2024-02-26T18:39:04.502Z,54.00
2024-02-26T18:42:19.039Z,54.00
2024-02-26T18:45:23.768Z,53.94
2024-02-26T18:47:51.303Z,54.34
2024-02-26T18:50:19.065Z,54.12
2024-02-26T18:52:51.120Z,53.87
2024-02-26T18:55:22.511Z,53.82
2024-02-26T18:57:55.676Z,54.28
2024-02-26T19:00:24.003Z,54.26
2024-02-26T19:02:59.659Z,54.43
2024-02-26T19:12:36.201Z,54.39
2024-02-26T19:15:03.914Z,54.46
2024-02-26T19:21:49.839Z,54.43
2024-02-26T19:24:18.419Z,54.46
2024-02-26T19:26:46.083Z,54.53
2024-02-26T19:29:15.424Z,54.66
2024-02-26T19:31:43.002Z,54.56
2024-02-26T19:34:10.184Z,55.09
2024-02-26T19:41:10.873Z,54.49
2024-02-26T19:43:38.455Z,54.83
2024-02-26T19:46:07.102Z,54.88
2024-02-26T19:48:34.543Z,55.00
2024-02-26T19:51:01.996Z,55.00
2024-02-26T19:53:29.049Z,54.92
2024-02-26T19:55:57.029Z,54.97
2024-02-26T19:58:24.273Z,54.79
2024-02-26T20:00:52.507Z,54.98
2024-02-26T20:03:20.448Z,55.38
2024-02-26T20:05:47.560Z,55.03
2024-02-26T20:08:17.146Z,55.45
2024-02-26T20:10:44.671Z,55.22
2024-02-26T20:13:12.782Z,55.26
2024-02-26T20:15:39.891Z,55.25
2024-02-26T20:18:09.098Z,55.57
2024-02-26T20:20:36.387Z,55.60
2024-02-26T20:23:03.527Z,55.52
2024-02-26T20:25:30.515Z,55.55
2024-02-26T20:27:57.606Z,55.42
2024-02-26T20:30:27.243Z,55.70
2024-02-26T20:32:54.752Z,55.54
2024-02-26T20:35:22.300Z,55.62
2024-02-26T20:37:49.652Z,55.88
2024-02-26T20:40:20.377Z,55.76
2024-02-26T20:42:48.702Z,55.77
2024-02-26T20:45:15.929Z,55.79
2024-02-26T20:47:45.195Z,55.98
2024-02-26T20:50:12.400Z,56.00
2024-02-26T20:52:39.778Z,56.03
2024-02-26T20:55:07.483Z,55.83
2024-02-26T20:57:34.618Z,55.74
2024-02-26T21:00:01.882Z,55.85
2024-02-26T21:02:38.993Z,56.08
2024-02-26T21:05:07.406Z,56.08
2024-02-26T21:07:35.182Z,56.02
2024-02-26T21:10:02.350Z,55.92
2024-02-26T21:12:31.215Z,56.09
2024-02-26T21:14:58.414Z,56.44
2024-02-26T21:17:25.729Z,56.44
2024-02-26T21:19:53.852Z,56.57
2024-02-26T21:22:21.167Z,56.51
2024-02-26T21:24:48.521Z,56.27
2024-02-26T21:27:15.881Z,56.25
2024-02-26T21:29:42.958Z,56.61
2024-02-26T21:32:09.981Z,56.47
2024-02-26T21:34:37.066Z,56.91
2024-02-26T21:37:04.333Z,56.44
2024-02-26T21:39:31.396Z,56.98
2024-02-26T21:41:58.490Z,56.66
2024-02-26T21:44:25.503Z,56.82
2024-02-26T21:46:52.517Z,56.85
2024-02-26T21:49:19.847Z,56.79
2024-02-26T21:51:48.425Z,56.95
2024-02-26T21:54:16.398Z,57.11
2024-02-26T21:56:45.160Z,56.78
2024-02-26T21:59:12.610Z,57.02
2024-02-26T22:01:44.261Z,57.45
2024-02-26T22:04:14.169Z,57.26
2024-02-26T22:06:43.245Z,56.80
2024-02-26T22:09:12.147Z,56.99
2024-02-26T22:11:39.741Z,57.03
2024-02-26T22:14:07.052Z,57.31
2024-02-26T22:16:34.354Z,57.32
2024-02-26T22:19:06.724Z,57.02
2024-02-26T22:21:35.806Z,57.63
2024-02-26T22:24:03.488Z,57.32
2024-02-26T22:26:30.633Z,57.26
2024-02-26T22:28:57.616Z,57.26
2024-02-26T22:31:26.744Z,57.49
2024-02-26T22:33:54.049Z,57.73
2024-02-26T22:36:21.830Z,57.54
2024-02-26T22:38:48.952Z,57.43
2024-02-26T22:41:18.922Z,57.24
2024-02-26T22:43:46.411Z,58.03
2024-02-26T22:46:13.371Z,57.86
2024-02-26T22:48:40.584Z,57.94
2024-02-26T22:51:07.723Z,57.91
2024-02-26T22:53:35.187Z,57.73
2024-02-26T22:56:02.262Z,57.94
2024-02-26T22:58:29.343Z,57.52
2024-02-26T23:00:56.444Z,57.67
2024-02-26T23:03:23.538Z,57.84
2024-02-26T23:05:50.530Z,57.61
2024-02-26T23:08:19.201Z,58.13
2024-02-26T23:10:46.667Z,57.79
2024-02-26T23:13:13.842Z,57.89
2024-02-26T23:15:41.107Z,58.19
2024-02-26T23:18:08.317Z,58.06
2024-02-26T23:20:36.937Z,58.29
2024-02-26T23:23:05.225Z,58.31
2024-02-26T23:25:32.478Z,57.92
2024-02-26T23:27:59.801Z,58.10
2024-02-26T23:30:27.027Z,58.20
2024-02-26T23:32:54.329Z,58.26
2024-02-26T23:35:21.649Z,58.10
2024-02-26T23:37:48.715Z,58.73
2024-02-26T23:40:16.189Z,58.30
2024-02-26T23:42:44.244Z,58.54
2024-02-26T23:45:12.264Z,58.18
2024-02-26T23:47:39.677Z,58.57
2024-02-26T23:50:07.321Z,58.38
2024-02-26T23:52:34.462Z,58.51
2024-02-26T23:55:01.653Z,58.61
2024-02-26T23:57:32.284Z,58.81
2024-02-26T23:59:59.467Z,58.78
